Time;durP1;ratioP1;P1;durP2;ratioP2;P2;SDS_P1;SDS_P2;PMS_P1;PMS_P2;Temp;Humidity;BMP_temperature;BMP_pressure;BME280_temperature;BME280_humidity;BME280_pressure;Samples;Min_cycle;Max_cycle;Signal;HPM_P1;HPM_P2
2022/06/26 00:00:05;;;;;;;3.53;3.23;;;20.00;99.90;;;;;;4989788;28;20458;-79
2022/06/26 00:02:34;;;;;;;3.70;3.40;;;19.90;99.90;;;;;;4987327;28;21149;-79
2022/06/26 00:05:01;;;;;;;3.40;3.20;;;19.80;99.90;;;;;;4983430;28;20802;-79
2022/06/26 00:07:28;;;;;;;3.47;3.20;;;19.80;99.90;;;;;;4985098;28;20500;-78
2022/06/26 00:09:56;;;;;;;3.83;3.10;;;19.70;99.90;;;;;;4987258;28;20505;-79
2022/06/26 00:12:23;;;;;;;3.57;3.37;;;19.60;99.90;;;;;;4988681;28;20529;-79
2022/06/26 00:14:49;;;;;;;3.67;3.47;;;19.50;99.90;;;;;;4987265;28;20466;-79
2022/06/26 00:17:17;;;;;;;3.80;3.60;;;19.50;99.90;;;;;;4985348;28;20964;-79
2022/06/26 00:19:45;;;;;;;4.10;3.80;;;19.40;99.90;;;;;;4987340;28;20854;-79
2022/06/26 00:22:12;;;;;;;4.60;3.23;;;19.40;99.90;;;;;;4986279;28;20474;-79
2022/06/26 00:24:41;;;;;;;4.00;3.70;;;19.40;99.90;;;;;;4994173;28;20496;-79
2022/06/26 00:27:09;;;;;;;4.10;3.83;;;19.40;99.90;;;;;;4984332;28;20884;-79
2022/06/26 00:29:36;;;;;;;4.80;4.47;;;19.30;99.90;;;;;;4980392;28;20454;-79
2022/06/26 00:32:05;;;;;;;5.60;5.20;;;19.30;99.90;;;;;;4986165;28;21019;-79
2022/06/26 00:34:32;;;;;;;5.10;4.70;;;19.40;99.90;;;;;;4988762;28;20462;-79
2022/06/26 00:37:01;;;;;;;4.60;4.30;;;19.40;99.90;;;;;;4992469;28;20465;-79
2022/06/26 00:39:28;;;;;;;5.03;4.53;;;19.30;99.90;;;;;;4990878;28;20458;-80
2022/06/26 00:41:58;;;;;;;4.00;3.60;;;19.30;99.90;;;;;;4990271;28;20485;-79
2022/06/26 00:44:26;;;;;;;5.70;5.10;;;19.50;99.90;;;;;;4989843;28;20458;-79
2022/06/26 00:46:53;;;;;;;4.70;4.30;;;19.60;99.90;;;;;;4992455;28;20992;-79
2022/06/26 00:49:20;;;;;;;3.53;3.00;;;19.70;99.90;;;;;;4986635;28;20518;-79
2022/06/26 00:51:50;;;;;;;3.60;3.30;;;19.80;99.90;;;;;;4988582;28;20498;-79
2022/06/26 00:54:22;;;;;;;3.43;3.13;;;19.90;99.90;;;;;;4990888;28;20464;-80
2022/06/26 00:56:49;;;;;;;2.93;2.73;;;20.00;99.90;;;;;;4990266;28;20956;-80
2022/06/26 00:59:17;;;;;;;2.93;2.73;;;20.20;99.90;;;;;;4988419;28;20464;-80
2022/06/26 01:01:44;;;;;;;2.90;2.57;;;20.30;99.90;;;;;;4989687;28;20469;-80
2022/06/26 01:04:11;;;;;;;2.67;2.47;;;20.40;99.90;;;;;;4988667;28;20805;-79
2022/06/26 01:06:38;;;;;;;2.20;2.10;;;20.50;99.90;;;;;;4983692;28;20485;-80
2022/06/26 01:09:10;;;;;;;2.10;2.00;;;20.60;99.90;;;;;;4988749;28;20458;-79
2022/06/26 01:11:39;;;;;;;2.80;2.00;;;20.60;99.90;;;;;;4990110;28;20544;-80
2022/06/26 01:14:07;;;;;;;2.67;2.47;;;20.70;99.90;;;;;;4989681;28;20462;-80
2022/06/26 01:16:34;;;;;;;2.10;2.00;;;20.70;99.90;;;;;;4990175;28;20464;-80
2022/06/26 01:19:02;;;;;;;2.13;1.90;;;20.70;99.90;;;;;;4992974;28;21123;-79
2022/06/26 01:21:30;;;;;;;2.10;2.00;;;20.70;99.90;;;;;;4991228;28;20532;-80
2022/06/26 01:23:58;;;;;;;2.30;2.10;;;20.80;99.90;;;;;;4990511;28;20464;-80
2022/06/26 01:26:25;;;;;;;2.23;2.03;;;20.80;99.90;;;;;;4990178;28;20485;-80
2022/06/26 01:28:52;;;;;;;2.40;2.20;;;20.90;99.90;;;;;;4994346;28;20454;-79
2022/06/26 01:31:20;;;;;;;2.43;1.80;;;20.90;99.90;;;;;;4991222;28;20476;-80
2022/06/26 01:33:48;;;;;;;2.63;2.00;;;21.00;99.90;;;;;;4992728;28;20458;-80
2022/06/26 01:36:15;;;;;;;2.10;2.00;;;21.10;99.90;;;;;;4987208;28;20528;-80
2022/06/26 01:38:43;;;;;;;2.70;2.20;;;21.10;99.90;;;;;;4990664;28;20482;-80
2022/06/26 01:41:11;;;;;;;2.43;2.23;;;21.20;99.90;;;;;;4989945;28;20584;-80
2022/06/26 01:43:39;;;;;;;2.23;2.10;;;21.20;99.90;;;;;;4986610;28;20520;-80
2022/06/26 01:46:07;;;;;;;2.33;2.13;;;21.20;99.90;;;;;;4985482;28;20484;-80
2022/06/26 01:48:37;;;;;;;4.17;2.20;;;21.30;99.90;;;;;;4991250;28;20488;-80
2022/06/26 01:51:04;;;;;;;2.53;2.33;;;21.30;99.90;;;;;;4989054;28;20470;-80
2022/06/26 01:53:32;;;;;;;2.23;1.93;;;21.20;99.90;;;;;;4994264;28;20545;-80
2022/06/26 01:55:59;;;;;;;2.30;2.10;;;21.20;99.90;;;;;;4984790;28;20454;-80
2022/06/26 01:58:28;;;;;;;1.90;1.80;;;21.10;99.90;;;;;;4990807;28;20524;-79
2022/06/26 02:00:55;;;;;;;2.17;2.00;;;21.10;99.90;;;;;;4987967;28;20520;-80
2022/06/26 02:03:23;;;;;;;1.90;1.80;;;21.00;99.90;;;;;;4987850;28;20446;-80
2022/06/26 02:05:50;;;;;;;2.33;2.00;;;20.90;99.90;;;;;;4989189;28;20945;-80
2022/06/26 02:08:18;;;;;;;1.93;1.53;;;20.90;99.90;;;;;;4991433;28;20944;-79
2022/06/26 02:13:40;;;;;;;1.70;1.60;;;20.80;99.90;;;;;;4986817;28;20469;-79
2022/06/26 02:16:10;;;;;;;1.60;1.50;;;20.70;99.90;;;;;;4980463;28;20450;-83
2022/06/26 02:18:38;;;;;;;1.50;1.40;;;20.60;99.90;;;;;;4986592;28;20810;-83
2022/06/26 02:21:07;;;;;;;1.67;1.50;;;20.60;99.90;;;;;;4987009;28;20517;-83
2022/06/26 02:23:35;;;;;;;1.90;1.50;;;20.50;99.90;;;;;;4989651;28;20453;-83
2022/06/26 02:26:03;;;;;;;1.57;1.47;;;20.50;99.90;;;;;;4988173;28;20555;-83
2022/06/26 02:28:29;;;;;;;1.50;1.40;;;20.40;99.90;;;;;;4987135;28;20468;-83
2022/06/26 02:30:58;;;;;;;2.60;1.23;;;20.30;99.90;;;;;;4989849;28;20481;-83
2022/06/26 02:33:25;;;;;;;1.40;1.30;;;20.30;99.90;;;;;;4985702;28;20462;-83
2022/06/26 02:35:54;;;;;;;1.30;1.17;;;20.30;99.90;;;;;;4988174;28;20465;-83
2022/06/26 02:38:22;;;;;;;1.50;1.40;;;20.20;99.90;;;;;;4994882;28;20545;-83
2022/06/26 02:40:49;;;;;;;1.70;1.60;;;20.10;99.90;;;;;;4987574;28;20474;-83
2022/06/26 02:43:18;;;;;;;1.30;1.20;;;20.00;99.90;;;;;;4990707;28;20557;-84
2022/06/26 02:45:45;;;;;;;2.57;1.70;;;20.00;99.90;;;;;;4989851;28;20454;-83
2022/06/26 02:48:14;;;;;;;1.40;1.30;;;19.90;99.90;;;;;;4987814;28;20485;-83
2022/06/26 02:50:41;;;;;;;1.27;1.17;;;19.90;99.90;;;;;;4987838;28;20484;-83
2022/06/26 02:53:09;;;;;;;1.60;1.30;;;19.90;99.90;;;;;;4988681;28;20471;-83
2022/06/26 02:55:36;;;;;;;1.43;1.33;;;19.90;99.90;;;;;;4988310;28;20453;-84
2022/06/26 02:58:04;;;;;;;1.80;1.20;;;19.90;99.90;;;;;;4987252;28;20465;-83
2022/06/26 03:00:31;;;;;;;1.80;1.47;;;19.90;99.90;;;;;;4985263;28;20481;-84
2022/06/26 03:03:00;;;;;;;1.70;1.20;;;19.90;99.90;;;;;;4989521;28;20497;-84
2022/06/26 03:05:29;;;;;;;1.17;1.07;;;19.90;99.90;;;;;;4983202;28;20540;-83
2022/06/26 03:07:57;;;;;;;3.00;1.53;;;19.90;99.90;;;;;;4987978;28;20474;-83
2022/06/26 03:10:24;;;;;;;1.40;1.30;;;19.90;99.90;;;;;;4987638;28;20992;-83
2022/06/26 03:12:52;;;;;;;1.53;1.40;;;19.90;99.90;;;;;;4989433;28;20837;-82
2022/06/26 03:15:19;;;;;;;1.57;1.47;;;19.80;99.90;;;;;;4989534;28;20513;-83
2022/06/26 03:17:47;;;;;;;1.20;1.10;;;19.80;99.90;;;;;;4982719;28;20465;-83
2022/06/26 03:20:17;;;;;;;1.67;1.30;;;19.80;99.90;;;;;;4989261;28;20545;-83
2022/06/26 03:22:46;;;;;;;2.60;1.43;;;19.90;99.90;;;;;;4990525;28;20647;-83
2022/06/26 03:25:13;;;;;;;1.30;1.20;;;19.80;99.90;;;;;;4988348;28;20465;-83
2022/06/26 03:27:40;;;;;;;1.23;1.13;;;19.80;99.90;;;;;;4985052;28;20477;-83
2022/06/26 03:30:10;;;;;;;1.20;1.10;;;19.90;99.90;;;;;;4987356;28;21087;-84
2022/06/26 03:32:37;;;;;;;1.43;1.33;;;19.90;99.90;;;;;;4982329;28;21081;-83
2022/06/26 03:35:05;;;;;;;1.33;1.23;;;19.90;99.90;;;;;;4988511;28;20553;-83
2022/06/26 03:37:32;;;;;;;1.30;1.20;;;19.80;99.90;;;;;;4989094;28;21042;-83
2022/06/26 03:40:01;;;;;;;1.30;1.20;;;19.90;99.90;;;;;;4988760;28;20520;-83
2022/06/26 03:42:28;;;;;;;1.60;1.50;;;19.90;99.90;;;;;;4987530;28;20549;-84
2022/06/26 03:44:55;;;;;;;1.73;1.20;;;20.00;99.90;;;;;;4990647;28;20461;-83
2022/06/26 03:47:22;;;;;;;1.23;1.10;;;20.00;99.90;;;;;;4985465;28;20555;-83
2022/06/26 03:49:52;;;;;;;1.57;1.47;;;20.00;99.90;;;;;;4987570;28;20815;-84
2022/06/26 03:52:20;;;;;;;1.20;1.10;;;20.10;99.90;;;;;;4988897;28;20924;-84
2022/06/26 03:54:47;;;;;;;1.20;1.10;;;20.00;99.90;;;;;;4989977;28;20844;-83
2022/06/26 03:57:16;;;;;;;1.30;1.20;;;20.00;99.90;;;;;;4981712;28;20458;-83
2022/06/26 03:59:43;;;;;;;1.57;1.47;;;19.90;99.90;;;;;;4989744;28;20486;-83
2022/06/26 04:02:11;;;;;;;1.60;1.47;;;19.90;99.90;;;;;;4986288;28;20453;-83
2022/06/26 04:04:38;;;;;;;1.53;1.43;;;19.90;99.90;;;;;;4985492;28;20529;-83
2022/06/26 04:07:05;;;;;;;2.17;1.80;;;20.00;99.90;;;;;;4985506;28;20588;-84
2022/06/26 04:09:33;;;;;;;1.50;1.40;;;20.10;99.90;;;;;;4992977;28;20509;-83
2022/06/26 04:12:00;;;;;;;1.50;1.40;;;20.10;99.90;;;;;;4992639;28;20454;-83
2022/06/26 04:14:28;;;;;;;2.73;1.40;;;20.10;99.90;;;;;;4991778;28;20549;-83
2022/06/26 04:16:56;;;;;;;1.17;1.07;;;20.10;99.90;;;;;;4990443;28;20464;-83
2022/06/26 04:19:22;;;;;;;1.17;1.10;;;20.20;99.90;;;;;;4989239;28;20914;-83
2022/06/26 04:21:49;;;;;;;1.30;1.20;;;20.30;99.90;;;;;;4990425;28;20462;-83
2022/06/26 04:24:17;;;;;;;1.37;1.27;;;20.30;99.90;;;;;;4991679;28;20819;-84
2022/06/26 04:26:43;;;;;;;1.30;1.20;;;20.20;99.90;;;;;;4992802;28;20949;-83
2022/06/26 04:29:10;;;;;;;1.30;1.20;;;20.20;99.90;;;;;;4993058;28;20464;-83
2022/06/26 04:31:39;;;;;;;1.57;1.47;;;20.20;99.90;;;;;;4991907;28;20453;-83
2022/06/26 04:34:06;;;;;;;1.70;1.60;;;20.20;99.90;;;;;;4990408;28;20456;-83
2022/06/26 04:36:33;;;;;;;2.17;2.00;;;20.10;99.90;;;;;;4991457;28;20490;-83
2022/06/26 04:39:00;;;;;;;1.93;1.83;;;20.10;99.90;;;;;;4992723;28;20462;-83
2022/06/26 04:41:34;;;;;;;1.90;1.80;;;20.10;99.90;;;;;;4990144;28;20508;-83
2022/06/26 04:44:06;;;;;;;1.73;1.63;;;20.00;99.90;;;;;;4984107;28;20464;-83
2022/06/26 04:46:33;;;;;;;2.47;1.60;;;20.00;99.90;;;;;;4992579;28;20493;-84
2022/06/26 04:49:01;;;;;;;2.30;1.63;;;20.00;99.90;;;;;;4992403;28;20503;-84
2022/06/26 04:51:29;;;;;;;1.90;1.80;;;20.00;99.90;;;;;;4989558;28;21410;-84
2022/06/26 04:53:56;;;;;;;1.77;1.57;;;20.00;99.90;;;;;;4992693;28;20553;-83
2022/06/26 04:56:23;;;;;;;2.23;1.70;;;20.00;99.90;;;;;;4987533;28;20462;-83
2022/06/26 04:58:50;;;;;;;1.73;1.63;;;20.10;99.90;;;;;;4989695;28;20465;-84
2022/06/26 05:01:18;;;;;;;1.83;1.73;;;20.10;99.90;;;;;;4992015;28;20556;-83
2022/06/26 05:03:45;;;;;;;1.70;1.60;;;20.20;99.90;;;;;;4990616;28;20480;-83
2022/06/26 05:06:13;;;;;;;1.83;1.73;;;20.20;99.90;;;;;;4989160;28;21458;-83
2022/06/26 05:08:40;;;;;;;1.50;1.40;;;20.30;99.90;;;;;;4993547;28;20605;-84
2022/06/26 05:11:07;;;;;;;1.50;1.40;;;20.30;99.90;;;;;;4990894;28;20478;-83
2022/06/26 05:13:34;;;;;;;1.80;1.70;;;20.40;99.90;;;;;;4989325;28;20461;-83
2022/06/26 05:16:01;;;;;;;1.60;1.47;;;20.50;99.90;;;;;;4989788;28;20489;-84
2022/06/26 05:18:29;;;;;;;1.80;1.70;;;20.50;99.90;;;;;;4988534;28;20450;-83
2022/06/26 05:20:56;;;;;;;1.63;1.53;;;20.60;99.90;;;;;;4985763;28;20814;-84
2022/06/26 05:23:25;;;;;;;2.90;1.40;;;20.70;99.90;;;;;;4989786;28;20454;-83
2022/06/26 05:25:52;;;;;;;1.60;1.50;;;20.90;99.90;;;;;;4992103;28;20475;-83
2022/06/26 05:28:20;;;;;;;1.83;1.73;;;20.90;99.90;;;;;;4991468;28;20497;-83
2022/06/26 05:30:47;;;;;;;2.97;1.73;;;20.90;99.90;;;;;;4992666;28;20560;-83
2022/06/26 05:33:14;;;;;;;1.87;1.73;;;20.90;99.90;;;;;;4990101;28;20473;-83
2022/06/26 05:35:41;;;;;;;4.13;1.80;;;20.90;99.90;;;;;;4989937;28;20462;-83
2022/06/26 05:38:08;;;;;;;2.00;1.90;;;20.90;99.90;;;;;;4992039;28;20458;-83
2022/06/26 05:40:36;;;;;;;2.67;2.47;;;20.80;99.90;;;;;;4989364;28;20477;-83
2022/06/26 05:43:04;;;;;;;2.40;2.20;;;20.80;99.90;;;;;;4982273;28;20465;-83
2022/06/26 05:45:31;;;;;;;2.50;2.40;;;20.70;99.90;;;;;;4990742;28;20461;-83
2022/06/26 05:47:58;;;;;;;2.63;2.07;;;20.60;99.90;;;;;;4990465;28;20476;-83
2022/06/26 05:50:25;;;;;;;2.50;2.30;;;20.60;99.90;;;;;;4988130;28;20477;-83
2022/06/26 05:52:52;;;;;;;2.50;2.30;;;20.60;99.90;;;;;;4988820;28;20472;-83
2022/06/26 05:55:19;;;;;;;2.43;2.23;;;20.60;99.90;;;;;;4990903;28;20454;-83
2022/06/26 05:57:47;;;;;;;2.40;2.20;;;20.70;99.90;;;;;;4990768;28;20470;-83
2022/06/26 06:00:15;;;;;;;2.43;2.33;;;20.80;99.90;;;;;;4990723;28;20505;-83
2022/06/26 06:02:43;;;;;;;2.50;2.23;;;20.80;99.90;;;;;;4988883;28;20462;-84
2022/06/26 06:05:10;;;;;;;2.53;2.33;;;20.90;99.90;;;;;;4987900;28;20466;-83
2022/06/26 06:07:37;;;;;;;2.30;2.10;;;20.90;99.90;;;;;;4993595;28;20478;-83
2022/06/26 06:10:06;;;;;;;2.50;2.40;;;20.90;99.90;;;;;;4986989;28;20538;-83
2022/06/26 06:12:34;;;;;;;2.80;2.57;;;20.90;99.90;;;;;;4991051;28;20458;-83
2022/06/26 06:15:02;;;;;;;2.67;2.47;;;20.90;99.90;;;;;;4987985;28;20466;-83
2022/06/26 06:17:40;;;;;;;2.73;2.53;;;20.90;99.90;;;;;;4987624;28;20458;-83
2022/06/26 06:20:11;;;;;;;2.70;2.50;;;20.90;99.90;;;;;;4993753;28;20473;-84
2022/06/26 06:22:39;;;;;;;2.80;2.00;;;21.00;99.90;;;;;;4969447;28;20484;-86
2022/06/26 06:25:07;;;;;;;2.57;2.23;;;21.10;99.90;;;;;;4983775;28;20472;-84
2022/06/26 06:27:35;;;;;;;4.03;2.00;;;21.10;99.90;;;;;;4987362;28;20465;-83
2022/06/26 06:30:04;;;;;;;1.60;1.50;;;21.30;99.90;;;;;;4990477;28;20490;-82
2022/06/26 06:32:32;;;;;;;1.53;1.43;;;21.40;99.90;;;;;;4989671;28;20470;-82
2022/06/26 06:34:59;;;;;;;1.57;1.20;;;21.50;99.90;;;;;;4986435;28;20462;-82
2022/06/26 06:37:26;;;;;;;1.70;1.60;;;21.60;99.90;;;;;;4991276;28;20468;-82
2022/06/26 06:39:53;;;;;;;2.13;1.47;;;21.70;99.90;;;;;;4989611;28;20825;-82
2022/06/26 06:42:20;;;;;;;1.53;1.43;;;21.70;99.90;;;;;;4987975;28;20524;-84
2022/06/26 06:44:47;;;;;;;1.77;1.43;;;21.80;99.90;;;;;;4984051;28;20457;-79
2022/06/26 06:47:16;;;;;;;1.50;1.40;;;21.90;99.90;;;;;;4991565;28;20506;-79
2022/06/26 06:49:43;;;;;;;2.07;1.60;;;22.00;99.90;;;;;;4987331;28;20505;-80
2022/06/26 06:52:10;;;;;;;3.43;1.70;;;22.10;99.90;;;;;;4990845;28;20488;-80
2022/06/26 06:54:37;;;;;;;1.80;1.40;;;22.10;99.90;;;;;;4990067;28;20455;-79
2022/06/26 06:57:05;;;;;;;1.30;1.20;;;22.20;99.90;;;;;;4988788;28;20446;-79
2022/06/26 06:59:32;;;;;;;2.13;1.47;;;22.40;99.90;;;;;;4987420;28;20489;-78
2022/06/26 07:01:59;;;;;;;1.50;1.20;;;22.50;99.90;;;;;;4991620;28;20469;-78
2022/06/26 07:04:28;;;;;;;2.10;1.10;;;22.60;99.90;;;;;;4988771;28;21204;-78
2022/06/26 07:06:55;;;;;;;1.40;1.30;;;22.80;99.90;;;;;;4990534;28;20596;-78
2022/06/26 07:09:22;;;;;;;1.37;1.27;;;22.90;99.90;;;;;;4990495;28;20498;-78
2022/06/26 07:11:49;;;;;;;1.20;1.10;;;23.00;99.90;;;;;;4990183;28;21011;-78
2022/06/26 07:14:16;;;;;;;1.10;1.00;;;23.20;99.90;;;;;;4988919;28;20983;-78
2022/06/26 07:16:43;;;;;;;1.20;1.10;;;23.40;99.90;;;;;;4987323;28;20500;-78
2022/06/26 07:19:11;;;;;;;2.20;1.00;;;23.50;99.90;;;;;;4990410;28;20558;-79
2022/06/26 07:21:40;;;;;;;1.00;1.00;;;23.70;99.90;;;;;;4986061;28;20477;-80
2022/06/26 07:24:07;;;;;;;1.10;1.00;;;23.80;99.90;;;;;;4988439;28;20466;-79
2022/06/26 07:26:34;;;;;;;4.10;1.07;;;23.80;99.90;;;;;;4986876;28;20573;-79
2022/06/26 07:29:01;;;;;;;1.20;1.10;;;23.90;99.90;;;;;;4989270;28;20597;-79
2022/06/26 07:31:29;;;;;;;1.33;1.20;;;24.00;99.90;;;;;;4988232;28;20982;-80
2022/06/26 07:34:16;;;;;;;1.20;1.10;;;24.00;99.90;;;;;;4989246;28;20478;-79
2022/06/26 07:36:46;;;;;;;1.10;1.00;;;24.10;99.90;;;;;;4990656;28;20609;-80
2022/06/26 07:39:15;;;;;;;1.40;1.30;;;24.30;99.90;;;;;;4989257;28;20473;-79
2022/06/26 07:41:43;;;;;;;1.30;1.20;;;24.40;99.90;;;;;;4986709;28;20869;-79
2022/06/26 07:44:10;;;;;;;1.50;1.00;;;24.60;99.90;;;;;;4987577;28;20458;-79
2022/06/26 07:46:38;;;;;;;1.47;1.07;;;24.90;99.90;;;;;;4986322;28;20465;-80
2022/06/26 07:49:06;;;;;;;1.20;1.10;;;25.30;99.90;;;;;;4987625;28;20503;-79
2022/06/26 07:51:34;;;;;;;1.03;0.90;;;25.90;99.90;;;;;;4988870;28;20817;-78
2022/06/26 07:54:03;;;;;;;1.90;1.10;;;26.60;99.90;;;;;;4985940;28;20544;-79
2022/06/26 07:56:31;;;;;;;1.53;1.10;;;27.30;99.90;;;;;;4982787;28;20458;-79
2022/06/26 07:58:59;;;;;;;1.70;1.20;;;28.00;99.20;;;;;;4983981;28;20473;-78
2022/06/26 08:01:26;;;;;;;2.20;1.10;;;28.50;97.10;;;;;;4987503;28;20477;-80
2022/06/26 08:03:53;;;;;;;1.20;1.00;;;28.80;96.10;;;;;;4987751;28;20545;-80
2022/06/26 08:06:21;;;;;;;1.77;1.07;;;29.10;95.20;;;;;;4990144;28;20451;-79
2022/06/26 08:08:48;;;;;;;1.83;1.20;;;29.60;93.80;;;;;;4986045;28;20489;-79
2022/06/26 08:11:17;;;;;;;1.20;1.07;;;29.90;93.00;;;;;;4989153;28;20450;-77
2022/06/26 08:13:44;;;;;;;1.20;1.07;;;30.20;92.30;;;;;;4989204;28;20453;-83
2022/06/26 08:16:12;;;;;;;1.30;1.10;;;30.70;91.20;;;;;;4989154;28;21277;-78
2022/06/26 08:18:39;;;;;;;2.50;1.10;;;30.90;91.10;;;;;;4986015;28;20474;-79
2022/06/26 08:23:47;;;;;;;1.20;1.10;;;31.00;90.50;;;;;;4977854;28;20492;-79
2022/06/26 08:26:14;;;;;;;1.90;1.40;;;31.30;90.50;;;;;;4978616;28;20489;-79
2022/06/26 08:28:43;;;;;;;1.20;1.10;;;31.20;88.10;;;;;;4981325;28;20482;-80
2022/06/26 08:31:11;;;;;;;1.00;1.00;;;31.60;88.00;;;;;;4987062;28;20450;-79
2022/06/26 08:33:38;;;;;;;1.07;0.97;;;32.00;85.50;;;;;;4990075;28;20949;-79
2022/06/26 08:36:05;;;;;;;1.37;0.97;;;32.30;83.30;;;;;;4988369;28;20532;-79
2022/06/26 08:38:33;;;;;;;1.10;1.00;;;32.70;80.70;;;;;;4984170;28;20513;-79
2022/06/26 08:41:00;;;;;;;1.20;1.10;;;32.90;79.00;;;;;;4987438;28;20480;-79
2022/06/26 08:43:28;;;;;;;0.90;0.90;;;33.00;78.40;;;;;;4982071;28;20454;-79
2022/06/26 08:45:58;;;;;;;2.93;1.10;;;32.90;78.50;;;;;;4982283;28;20454;-76
2022/06/26 08:48:27;;;;;;;0.97;0.97;;;32.90;78.40;;;;;;4987238;28;20488;-79
2022/06/26 08:50:55;;;;;;;2.50;1.10;;;33.50;78.00;;;;;;4985950;28;20554;-79
2022/06/26 08:53:24;;;;;;;1.30;1.20;;;33.80;76.50;;;;;;4986466;28;20472;-79
2022/06/26 08:55:51;;;;;;;1.30;1.20;;;33.90;76.40;;;;;;4991898;28;20541;-79
2022/06/26 08:58:18;;;;;;;1.03;0.93;;;34.00;75.30;;;;;;4984813;28;20481;-79
2022/06/26 09:00:46;;;;;;;1.27;1.17;;;34.20;74.60;;;;;;4992765;28;20454;-79
2022/06/26 09:03:16;;;;;;;1.03;0.93;;;34.40;73.70;;;;;;4988409;28;20647;-79
2022/06/26 09:05:43;;;;;;;1.30;1.20;;;34.30;73.00;;;;;;4991685;28;20461;-78
2022/06/26 09:08:18;;;;;;;1.10;1.00;;;34.10;73.70;;;;;;4992155;28;20496;-78
2022/06/26 09:10:46;;;;;;;1.20;1.10;;;34.20;72.90;;;;;;4993931;28;20508;-78
2022/06/26 09:13:13;;;;;;;1.73;1.10;;;34.30;72.90;;;;;;4992309;28;20456;-81
2022/06/26 09:15:41;;;;;;;1.10;1.00;;;34.50;72.90;;;;;;4991853;28;20565;-80
2022/06/26 09:18:10;;;;;;;1.30;1.00;;;34.70;71.30;;;;;;4987855;28;20485;-80
2022/06/26 09:20:51;;;;;;;1.30;1.20;;;34.80;70.50;;;;;;4991713;28;20461;-77
2022/06/26 09:23:18;;;;;;;1.73;1.00;;;35.10;70.30;;;;;;4992673;28;20466;-79
2022/06/26 09:25:47;;;;;;;1.20;1.10;;;34.80;71.10;;;;;;4990922;28;20473;-81
2022/06/26 09:28:15;;;;;;;0.90;0.90;;;35.10;70.00;;;;;;4984209;28;20560;-81
2022/06/26 09:30:50;;;;;;;1.30;1.20;;;35.50;69.10;;;;;;4993476;28;20973;-81
2022/06/26 09:33:19;;;;;;;1.10;1.00;;;35.80;68.40;;;;;;4994405;28;20454;-81
2022/06/26 09:35:47;;;;;;;1.20;1.10;;;36.20;67.50;;;;;;4986101;28;20553;-81
2022/06/26 09:38:19;;;;;;;1.20;1.10;;;35.90;67.40;;;;;;4994287;28;20478;-81
2022/06/26 09:40:47;;;;;;;1.43;0.97;;;36.40;66.40;;;;;;4992736;28;20477;-81
2022/06/26 09:43:25;;;;;;;1.20;1.10;;;36.30;64.60;;;;;;4994324;28;20465;-81
2022/06/26 09:45:54;;;;;;;1.40;1.00;;;36.30;64.40;;;;;;4992965;28;20492;-81
2022/06/26 09:48:23;;;;;;;1.30;1.10;;;36.20;64.30;;;;;;4993951;28;20540;-81
2022/06/26 09:50:52;;;;;;;2.40;1.13;;;35.60;64.20;;;;;;4993231;28;20493;-81
2022/06/26 09:53:21;;;;;;;1.73;1.13;;;35.10;66.10;;;;;;4993843;28;20454;-81
2022/06/26 09:55:48;;;;;;;1.47;1.20;;;35.20;65.90;;;;;;4989966;28;20454;-81
2022/06/26 09:58:16;;;;;;;1.10;1.00;;;35.20;65.90;;;;;;4984413;28;20482;-81
2022/06/26 10:06:25;;;;;;;1.20;1.10;;;35.50;66.30;;;;;;4989961;28;20458;-81
2022/06/26 10:06:26;;;;;;;1.20;1.10;;;36.20;63.30;;;;;;4993036;28;20969;-81
2022/06/26 10:08:54;;;;;;;0.93;0.90;;;36.50;63.30;;;;;;4993473;28;20483;-81
2022/06/26 10:11:24;;;;;;;1.03;0.93;;;36.80;62.40;;;;;;4992139;28;20466;-81
2022/06/26 10:13:53;;;;;;;1.20;1.10;;;36.60;62.10;;;;;;4991410;28;20470;-81
2022/06/26 10:16:37;;;;;;;1.17;1.07;;;36.70;61.50;;;;;;4988071;28;20462;-81
2022/06/26 10:19:18;;;;;;;1.20;1.10;;;36.70;60.80;;;;;;4995279;28;20492;-81
2022/06/26 10:21:47;;;;;;;2.00;1.10;;;36.10;61.20;;;;;;4993149;28;21047;-81
2022/06/26 10:24:15;;;;;;;1.27;1.00;;;35.90;62.70;;;;;;4984651;28;20466;-81
2022/06/26 10:26:52;;;;;;;1.20;1.10;;;35.80;63.10;;;;;;4990566;28;20810;-81
2022/06/26 10:29:19;;;;;;;1.17;1.07;;;35.50;64.60;;;;;;4992765;28;20473;-81
2022/06/26 10:31:48;;;;;;;1.10;1.03;;;35.50;63.00;;;;;;4996634;28;20567;-81
2022/06/26 10:34:17;;;;;;;1.90;1.40;;;35.20;63.50;;;;;;4988594;28;20469;-81
2022/06/26 10:36:58;;;;;;;1.40;1.03;;;34.90;64.50;;;;;;4991875;28;20458;-81
2022/06/26 10:39:36;;;;;;;1.13;1.03;;;35.10;64.80;;;;;;4992394;28;20967;-81
2022/06/26 10:44:56;;;;;;;12.03;6.70;;;36.20;62.70;;;;;;4991662;28;20574;-81
2022/06/26 10:47:23;;;;;;;2.40;2.20;;;36.40;61.20;;;;;;4992107;28;20453;-81
2022/06/26 10:49:51;;;;;;;6.90;4.80;;;36.50;61.80;;;;;;4991955;28;20485;-81
2022/06/26 10:52:31;;;;;;;1.20;1.10;;;36.60;60.40;;;;;;4992231;28;20472;-81
2022/06/26 10:54:59;;;;;;;2.67;2.27;;;36.70;59.60;;;;;;4983729;28;20457;-81
2022/06/26 10:57:37;;;;;;;2.70;2.20;;;36.70;58.80;;;;;;4992493;28;20466;-81
2022/06/26 11:00:06;;;;;;;1.33;1.23;;;36.50;59.10;;;;;;4992064;28;20458;-81
2022/06/26 11:02:38;;;;;;;1.80;1.30;;;36.30;59.30;;;;;;4992596;28;20481;-81
2022/06/26 11:05:08;;;;;;;2.00;1.43;;;36.10;60.00;;;;;;4990409;28;20461;-81
2022/06/26 11:07:47;;;;;;;2.00;1.77;;;36.20;60.00;;;;;;4992277;28;20490;-81
2022/06/26 11:10:16;;;;;;;3.93;2.30;;;36.20;60.30;;;;;;4986999;28;20845;-81
2022/06/26 11:12:44;;;;;;;3.00;1.97;;;35.90;59.50;;;;;;4990906;28;20836;-81
2022/06/26 11:15:26;;;;;;;1.07;0.93;;;35.30;60.10;;;;;;4992007;28;20946;-81
2022/06/26 11:17:58;;;;;;;1.30;1.20;;;34.70;61.40;;;;;;4991414;28;20477;-81
2022/06/26 11:23:18;;;;;;;1.30;1.20;;;33.60;64.40;;;;;;4989846;28;20462;-81
2022/06/26 11:25:46;;;;;;;1.63;1.53;;;33.60;64.10;;;;;;4992406;28;20465;-81
2022/06/26 11:28:14;;;;;;;1.67;1.30;;;32.90;65.60;;;;;;4987952;28;20474;-82
2022/06/26 11:30:42;;;;;;;2.70;1.40;;;32.60;66.60;;;;;;4995510;28;20474;-81
2022/06/26 11:33:10;;;;;;;1.80;1.27;;;31.90;67.80;;;;;;4990466;28;20469;-81
2022/06/26 11:35:37;;;;;;;1.93;1.50;;;31.70;68.10;;;;;;4991876;28;20506;-81
2022/06/26 11:38:11;;;;;;;1.63;1.50;;;31.50;69.10;;;;;;4990896;28;20569;-81
2022/06/26 11:40:40;;;;;;;1.77;1.10;;;31.50;70.00;;;;;;4990281;28;20462;-81
2022/06/26 11:43:08;;;;;;;2.13;1.50;;;31.60;70.30;;;;;;4990374;28;20470;-81
2022/06/26 11:45:35;;;;;;;1.27;1.17;;;31.90;68.90;;;;;;4989045;28;20461;-81
2022/06/26 11:48:07;;;;;;;1.47;1.30;;;32.10;68.50;;;;;;4990790;28;20474;-81
2022/06/26 11:50:36;;;;;;;1.90;1.47;;;32.60;68.70;;;;;;4990984;28;20501;-81
2022/06/26 11:53:05;;;;;;;1.53;1.43;;;32.90;67.70;;;;;;4989043;28;20481;-81
2022/06/26 11:55:32;;;;;;;1.20;1.10;;;33.40;66.30;;;;;;4991859;28;20516;-81
2022/06/26 11:58:03;;;;;;;1.63;1.07;;;33.50;65.10;;;;;;4991782;28;20470;-80
2022/06/26 12:00:31;;;;;;;1.40;1.13;;;33.70;66.30;;;;;;4990942;28;20446;-80
2022/06/26 12:03:01;;;;;;;1.20;1.10;;;34.00;66.40;;;;;;4990533;28;20470;-81
2022/06/26 12:05:29;;;;;;;1.60;1.20;;;34.70;64.70;;;;;;4989876;28;20461;-81
2022/06/26 12:07:57;;;;;;;1.20;1.10;;;35.20;63.20;;;;;;4991453;28;20466;-81
2022/06/26 12:10:29;;;;;;;1.27;1.00;;;35.50;62.20;;;;;;4990677;28;20485;-81
2022/06/26 12:12:57;;;;;;;1.30;1.20;;;35.70;62.80;;;;;;4992904;28;20465;-81
2022/06/26 12:15:26;;;;;;;3.10;1.23;;;35.90;61.90;;;;;;4990060;28;20458;-81
2022/06/26 12:17:55;;;;;;;1.63;1.00;;;36.20;63.10;;;;;;4991892;28;20494;-81
2022/06/26 12:20:23;;;;;;;1.87;1.20;;;36.50;60.50;;;;;;4989701;28;20458;-82
2022/06/26 12:22:52;;;;;;;1.10;1.00;;;36.70;60.90;;;;;;4982494;28;20548;-81
2022/06/26 12:25:28;;;;;;;1.10;1.00;;;37.10;59.70;;;;;;4990359;28;20454;-81
2022/06/26 12:27:55;;;;;;;0.87;0.87;;;37.10;60.30;;;;;;4992565;28;20465;-81
2022/06/26 12:30:27;;;;;;;1.60;1.30;;;37.10;59.80;;;;;;4993501;28;20470;-81
2022/06/26 12:32:54;;;;;;;1.07;0.97;;;37.10;59.40;;;;;;4987948;28;20458;-81
2022/06/26 12:35:21;;;;;;;0.80;0.80;;;37.10;58.90;;;;;;4993864;28;20960;-81
2022/06/26 12:37:48;;;;;;;1.00;0.93;;;36.80;59.10;;;;;;4993724;28;20481;-81
2022/06/26 12:40:16;;;;;;;1.20;1.10;;;36.60;58.70;;;;;;4993546;28;20481;-81
2022/06/26 12:42:43;;;;;;;1.13;1.03;;;36.30;58.90;;;;;;4993072;28;20581;-81
2022/06/26 12:45:11;;;;;;;1.20;1.10;;;36.20;59.80;;;;;;4994891;28;20453;-81
2022/06/26 12:47:40;;;;;;;1.00;1.00;;;35.80;61.40;;;;;;4994401;28;20488;-81
2022/06/26 12:50:08;;;;;;;2.63;1.20;;;35.80;60.60;;;;;;4993122;28;20489;-80
2022/06/26 12:52:35;;;;;;;1.20;1.10;;;35.80;61.50;;;;;;4992736;28;20972;-81
2022/06/26 12:55:05;;;;;;;1.63;1.10;;;36.50;60.20;;;;;;4994370;28;20508;-81
2022/06/26 12:57:32;;;;;;;1.30;1.20;;;36.90;59.30;;;;;;4994850;28;21022;-81
2022/06/26 12:59:59;;;;;;;1.30;1.10;;;37.70;57.70;;;;;;4986386;28;20489;-81
2022/06/26 13:02:26;;;;;;;1.30;1.20;;;38.80;56.70;;;;;;4992430;28;20576;-81
2022/06/26 13:04:54;;;;;;;1.17;1.07;;;39.80;55.80;;;;;;4992042;28;21043;-81
2022/06/26 13:07:21;;;;;;;1.47;1.07;;;40.70;54.90;;;;;;4992854;28;20818;-81